createdAt,value
2024-03-01T00:01:56.560Z,-21.34
2024-03-01T00:05:00.248Z,-21.16
2024-03-01T00:08:04.517Z,-21.03
2024-03-01T00:11:07.793Z,-20.99
2024-03-01T00:14:12.027Z,-20.77
2024-03-01T00:17:14.937Z,-20.71
2024-03-01T00:20:18.629Z,-20.63
2024-03-01T00:23:22.180Z,-20.36
2024-03-01T00:26:26.297Z,-20.40
2024-03-01T00:29:29.983Z,-20.29
2024-03-01T00:32:34.447Z,-20.17
2024-03-01T00:35:37.941Z,-20.12
2024-03-01T00:38:41.624Z,-20.00
2024-03-01T00:41:45.608Z,-19.88
2024-03-01T00:44:49.389Z,-19.81
2024-03-01T00:47:53.097Z,-19.62
2024-03-01T00:50:57.491Z,-19.52
2024-03-01T00:54:01.238Z,-19.34
2024-03-01T00:57:04.871Z,-19.35
2024-03-01T01:00:10.714Z,-19.25
2024-03-01T01:03:14.931Z,-18.86
2024-03-01T01:06:18.624Z,-18.67
2024-03-01T01:09:22.469Z,-18.34
2024-03-01T01:12:26.213Z,-18.08
2024-03-01T01:15:29.261Z,-17.61
2024-03-01T01:18:32.980Z,-17.07
2024-03-01T01:21:37.336Z,-16.92
2024-03-01T01:24:41.342Z,-17.15
2024-03-01T01:27:45.500Z,-17.32
2024-03-01T01:30:49.660Z,-17.28
2024-03-01T01:33:53.911Z,-17.10
2024-03-01T01:36:58.083Z,-16.84
2024-03-01T01:40:02.334Z,-16.68
2024-03-01T01:43:08.064Z,-16.43
2024-03-01T01:46:21.408Z,-16.24
2024-03-01T01:49:28.054Z,-15.84
2024-03-01T01:52:32.737Z,-15.40
2024-03-01T01:55:37.558Z,-15.01
2024-03-01T01:58:43.404Z,-14.65
2024-03-01T02:01:47.242Z,-15.13
2024-03-01T02:04:52.357Z,-15.08
2024-03-01T02:07:55.436Z,-15.12
2024-03-01T02:10:59.504Z,-14.84
2024-03-01T02:14:03.779Z,-14.64
2024-03-01T02:17:07.356Z,-14.28
2024-03-01T02:20:12.263Z,-13.36
2024-03-01T02:23:21.302Z,-12.84
2024-03-01T02:26:24.386Z,-13.11
2024-03-01T02:29:28.395Z,-13.25
2024-03-01T02:32:32.055Z,-13.41
2024-03-01T02:35:36.048Z,-13.01
2024-03-01T02:38:39.096Z,-12.89
2024-03-01T02:41:42.277Z,-12.85
2024-03-01T02:44:45.873Z,-12.73
2024-03-01T02:47:50.460Z,-12.59
2024-03-01T02:50:54.428Z,-12.54
2024-03-01T02:53:58.780Z,-12.22
2024-03-01T02:57:02.011Z,-11.78
2024-03-01T03:00:12.766Z,-11.15
2024-03-01T03:03:17.032Z,-10.51
2024-03-01T03:06:20.029Z,-11.04
2024-03-01T03:09:23.306Z,-11.31
2024-03-01T03:12:27.194Z,-11.38
2024-03-01T03:15:55.223Z,-11.19
2024-03-01T03:18:58.180Z,-11.55
2024-03-01T03:22:01.793Z,-11.60
2024-03-01T03:25:06.608Z,-11.28
2024-03-01T03:28:11.611Z,-10.96
2024-03-01T03:31:14.647Z,-10.20
2024-03-01T03:34:17.568Z,-10.36
2024-03-01T03:37:21.933Z,-10.60
2024-03-01T03:40:25.444Z,-10.87
2024-03-01T03:43:29.100Z,-10.72
2024-03-01T03:46:32.545Z,-10.44
2024-03-01T03:49:40.026Z,-10.28
2024-03-01T03:52:43.726Z,-10.68
2024-03-01T03:55:47.381Z,-10.77
2024-03-01T03:58:51.105Z,-10.83
2024-03-01T04:01:54.963Z,-10.77
2024-03-01T04:04:58.380Z,-10.83
2024-03-01T04:08:02.097Z,-10.56
2024-03-01T04:11:09.105Z,-10.01
2024-03-01T04:14:12.864Z,-10.00
2024-03-01T04:17:15.957Z,-9.89
2024-03-01T04:20:19.536Z,-9.90
2024-03-01T04:23:24.534Z,-9.77
2024-03-01T04:26:28.504Z,-9.86
2024-03-01T04:29:32.685Z,-9.93
2024-03-01T04:32:37.300Z,-9.86
2024-03-01T04:35:41.015Z,-9.56
2024-03-01T04:38:44.103Z,-9.49
2024-03-01T04:41:48.186Z,-9.45
2024-03-01T04:44:51.802Z,-8.93
2024-03-01T04:47:56.024Z,-8.79
2024-03-01T04:50:59.684Z,-8.99
2024-03-01T04:54:02.932Z,-8.96
2024-03-01T04:57:10.530Z,-9.10
2024-03-01T05:00:15.291Z,-8.93
2024-03-01T05:03:19.051Z,-8.80
2024-03-01T05:06:22.565Z,-8.64
2024-03-01T05:09:25.876Z,-8.27
2024-03-01T05:12:30.049Z,-8.24
2024-03-01T05:15:33.040Z,-8.03
2024-03-01T05:18:36.800Z,-7.84
2024-03-01T05:21:40.871Z,-7.47
2024-03-01T05:24:44.619Z,-7.25
2024-03-01T05:27:50.125Z,-7.36
2024-03-01T05:30:57.513Z,-7.12
2024-03-01T05:34:04.556Z,-7.20
2024-03-01T05:37:08.124Z,-7.22
2024-03-01T05:40:12.616Z,-7.04
2024-03-01T05:43:16.142Z,-6.60
2024-03-01T05:46:19.024Z,-6.34
2024-03-01T05:49:22.511Z,-6.50
2024-03-01T05:52:26.174Z,-6.46
2024-03-01T05:55:54.574Z,-6.37
2024-03-01T05:58:58.915Z,-6.62
2024-03-01T06:02:02.292Z,-6.73
2024-03-01T06:05:05.610Z,-6.68
2024-03-01T06:08:09.295Z,-6.31
2024-03-01T06:11:13.140Z,-6.15
2024-03-01T06:14:16.718Z,-6.03
2024-03-01T06:17:20.744Z,-6.01
2024-03-01T06:20:24.260Z,-5.89
2024-03-01T06:23:30.565Z,-6.02
2024-03-01T06:26:33.957Z,-5.94
2024-03-01T06:29:36.845Z,-5.75
2024-03-01T06:32:40.755Z,-5.80
2024-03-01T06:35:44.422Z,-5.83
2024-03-01T06:38:47.900Z,-5.97
2024-03-01T06:41:51.271Z,-5.70
2024-03-01T06:44:54.816Z,-5.47
2024-03-01T06:47:58.766Z,-5.41
2024-03-01T06:51:02.499Z,-5.35
2024-03-01T06:54:06.184Z,-5.33
2024-03-01T06:57:09.828Z,-5.26
2024-03-01T07:00:14.417Z,-5.16
2024-03-01T07:03:17.616Z,-5.10
2024-03-01T07:06:21.323Z,-4.78
2024-03-01T07:09:24.981Z,-4.21
2024-03-01T07:12:28.094Z,-4.08
2024-03-01T07:15:31.184Z,-3.91
2024-03-01T07:18:34.678Z,-3.65
2024-03-01T07:21:38.489Z,-3.66
2024-03-01T07:24:42.027Z,-3.69
2024-03-01T07:27:45.627Z,-3.71
2024-03-01T07:30:49.220Z,-3.80
2024-03-01T07:33:52.743Z,-3.72
2024-03-01T07:36:56.549Z,-3.45
2024-03-01T07:40:00.521Z,-3.42
2024-03-01T07:43:06.382Z,-3.54
2024-03-01T07:46:09.337Z,-3.58
2024-03-01T07:49:12.377Z,-3.53
2024-03-01T07:52:16.143Z,-3.79
2024-03-01T07:55:19.439Z,-3.99
2024-03-01T07:58:23.257Z,-3.89
2024-03-01T08:01:27.928Z,-3.98
2024-03-01T08:04:32.138Z,-4.00
2024-03-01T08:07:35.108Z,-4.13
2024-03-01T08:10:47.929Z,-4.01
2024-03-01T08:13:51.589Z,-3.92
2024-03-01T08:16:55.969Z,-3.68
2024-03-01T08:19:59.587Z,-3.88
2024-03-01T08:23:02.615Z,-4.18
2024-03-01T08:26:13.858Z,-4.32
2024-03-01T08:29:19.496Z,-4.33
2024-03-01T08:32:41.608Z,-4.12
2024-03-01T08:35:46.696Z,-3.91
2024-03-01T08:39:02.583Z,-3.89
2024-03-01T08:42:06.802Z,-3.95
2024-03-01T08:45:23.370Z,-4.10
2024-03-01T08:48:26.724Z,-4.20
2024-03-01T08:51:29.682Z,-4.00
2024-03-01T08:54:34.339Z,-3.91
2024-03-01T08:57:41.097Z,-4.08
2024-03-01T09:00:51.684Z,-3.96
2024-03-01T09:03:54.749Z,-3.99
2024-03-01T09:07:26.054Z,-4.08
2024-03-01T09:10:32.822Z,-4.33
2024-03-01T09:13:36.698Z,-4.45
2024-03-01T09:16:39.801Z,-4.56
2024-03-01T09:19:49.664Z,-4.71
2024-03-01T09:22:54.148Z,-4.79
2024-03-01T09:26:10.206Z,-4.87
2024-03-01T09:29:38.684Z,-5.03
2024-03-01T09:32:43.405Z,-5.23
2024-03-01T09:35:52.391Z,-5.19
2024-03-01T09:38:57.070Z,-5.29
2024-03-01T09:42:23.877Z,-5.41
2024-03-01T09:46:09.025Z,-5.49
2024-03-01T09:49:15.408Z,-5.58
2024-03-01T09:52:36.848Z,-5.61
2024-03-01T09:55:55.234Z,-5.69
2024-03-01T09:59:13.233Z,-5.77
2024-03-01T10:02:35.160Z,-5.75
2024-03-01T10:06:10.248Z,-4.80
2024-03-01T10:09:26.245Z,-4.20
2024-03-01T10:12:41.555Z,-4.06
2024-03-01T10:16:11.097Z,-4.35
2024-03-01T10:19:40.002Z,-4.53
2024-03-01T10:23:20.301Z,-5.51
2024-03-01T10:26:31.834Z,-6.26
2024-03-01T10:29:46.516Z,-6.27
2024-03-01T10:33:11.494Z,-5.85
2024-03-01T10:36:23.382Z,-6.13
2024-03-01T10:39:58.723Z,-6.87
2024-03-01T10:43:10.761Z,-7.17
2024-03-01T10:46:30.594Z,-7.39
2024-03-01T10:49:49.756Z,-7.51
2024-03-01T10:53:09.047Z,-7.84
2024-03-01T10:56:15.149Z,-8.26
2024-03-01T10:59:49.814Z,-8.61
2024-03-01T11:03:20.521Z,-8.73
2024-03-01T11:06:44.822Z,-8.50
2024-03-01T11:10:03.974Z,-8.39
2024-03-01T11:13:11.626Z,-8.27
2024-03-01T11:16:20.956Z,-8.51
2024-03-01T11:19:32.951Z,-8.75
2024-03-01T11:22:37.683Z,-8.67
2024-03-01T11:26:21.877Z,-8.28
2024-03-01T11:29:34.341Z,-8.11
2024-03-01T11:32:50.366Z,-7.89
2024-03-01T11:36:13.506Z,-7.90
2024-03-01T11:39:32.595Z,-7.91
2024-03-01T11:42:55.117Z,-8.04
2024-03-01T11:46:22.115Z,-8.25
2024-03-01T11:50:06.201Z,-8.55
2024-03-01T11:53:18.624Z,-8.71
2024-03-01T11:56:42.933Z,-8.90
2024-03-01T11:59:58.771Z,-8.97
2024-03-01T12:03:11.256Z,-9.03
2024-03-01T12:06:53.394Z,-9.21
2024-03-01T12:09:59.432Z,-9.27
2024-03-01T12:13:10.504Z,-9.33
2024-03-01T12:16:37.075Z,-9.39
2024-03-01T12:19:50.590Z,-9.45
2024-03-01T12:23:07.655Z,-9.54
2024-03-01T12:26:13.045Z,-9.60
2024-03-01T12:29:38.193Z,-9.63
2024-03-01T12:33:16.266Z,-9.67
2024-03-01T12:36:36.833Z,-9.72
2024-03-01T12:39:55.860Z,-9.77
2024-03-01T12:43:21.487Z,-9.86
2024-03-01T12:46:58.516Z,-9.76
2024-03-01T12:50:18.671Z,-9.57
2024-03-01T12:53:49.229Z,-9.48
2024-03-01T12:57:15.695Z,-9.58
2024-03-01T13:00:26.194Z,-9.66
2024-03-01T13:04:13.617Z,-9.71
2024-03-01T13:07:17.979Z,-9.75
2024-03-01T13:10:24.738Z,-9.77
2024-03-01T13:13:31.467Z,-9.85
2024-03-01T13:16:35.241Z,-9.87
2024-03-01T13:19:43.588Z,-9.88
2024-03-01T13:22:52.385Z,-9.86
2024-03-01T13:26:15.281Z,-9.93
2024-03-01T13:29:23.623Z,-9.98
2024-03-01T13:32:37.197Z,-9.93
2024-03-01T13:35:45.729Z,-9.97
2024-03-01T13:39:12.452Z,-9.93
2024-03-01T13:42:26.798Z,-9.87
2024-03-01T13:45:36.898Z,-9.92
2024-03-01T13:48:48.866Z,-9.96
2024-03-01T13:51:54.097Z,-9.96
2024-03-01T13:54:59.051Z,-9.95
2024-03-01T13:58:03.174Z,-9.95
2024-03-01T14:01:08.208Z,-9.95
2024-03-01T14:04:12.378Z,-10.05
2024-03-01T14:07:17.883Z,-10.11
2024-03-01T14:10:22.068Z,-10.13
2024-03-01T14:13:29.095Z,-10.16
2024-03-01T14:16:35.978Z,-10.36
2024-03-01T14:19:39.093Z,-10.32
2024-03-01T14:22:43.331Z,-10.15
2024-03-01T14:25:48.486Z,-10.13
2024-03-01T14:28:51.884Z,-9.97
2024-03-01T14:32:10.063Z,-9.84
2024-03-01T14:35:20.876Z,-9.81
2024-03-01T14:38:24.694Z,-9.72
2024-03-01T14:41:41.672Z,-9.49
2024-03-01T14:44:46.603Z,-9.66
2024-03-01T14:47:57.579Z,-9.38
2024-03-01T14:51:09.078Z,-9.26
2024-03-01T14:54:25.998Z,-9.02
2024-03-01T14:57:29.828Z,-9.22
2024-03-01T15:00:34.220Z,-9.19
2024-03-01T15:03:38.382Z,-9.27
2024-03-01T15:06:42.159Z,-9.27
2024-03-01T15:09:47.146Z,-9.15
2024-03-01T15:12:54.068Z,-9.11
2024-03-01T15:15:58.304Z,-9.02
2024-03-01T15:19:02.029Z,-8.86
2024-03-01T15:22:05.689Z,-8.85
2024-03-01T15:25:12.799Z,-8.85
2024-03-01T15:28:17.087Z,-8.82
2024-03-01T15:31:22.047Z,-8.79
2024-03-01T15:34:25.307Z,-8.76
2024-03-01T15:37:28.634Z,-8.76
2024-03-01T15:40:33.326Z,-8.85
2024-03-01T15:43:37.053Z,-9.02
2024-03-01T15:46:40.301Z,-9.04
2024-03-01T15:49:44.012Z,-9.14
2024-03-01T15:52:54.212Z,-9.12
2024-03-01T15:56:02.678Z,-9.20
2024-03-01T15:59:07.842Z,-9.26
2024-03-01T16:02:11.428Z,-9.33
2024-03-01T16:05:19.074Z,-9.34
2024-03-01T16:08:24.380Z,-9.32
2024-03-01T16:11:28.964Z,-9.37
2024-03-01T16:14:32.005Z,-9.45
2024-03-01T16:17:35.322Z,-9.47
2024-03-01T16:20:38.842Z,-9.47
2024-03-01T16:23:43.078Z,-9.51
2024-03-01T16:26:46.051Z,-9.54
2024-03-01T16:29:49.382Z,-9.46
2024-03-01T16:32:52.908Z,-9.46
2024-03-01T16:36:08.932Z,-9.52
2024-03-01T16:39:38.029Z,-9.55
2024-03-01T16:42:43.928Z,-9.40
2024-03-01T16:45:47.689Z,-9.36
2024-03-01T16:48:54.541Z,-9.38
2024-03-01T16:52:01.918Z,-9.35
2024-03-01T16:55:10.803Z,-9.40
2024-03-01T16:58:15.739Z,-9.39
2024-03-01T17:01:33.851Z,-9.36
2024-03-01T17:04:37.124Z,-9.43
2024-03-01T17:07:47.715Z,-9.44
2024-03-01T17:10:51.094Z,-9.64
2024-03-01T17:13:54.057Z,-9.81
2024-03-01T17:16:59.910Z,-9.65
2024-03-01T17:20:05.864Z,-9.60
2024-03-01T17:23:10.109Z,-9.85
2024-03-01T17:26:13.145Z,-9.77
2024-03-01T17:29:17.033Z,-9.70
2024-03-01T17:32:20.783Z,-9.82
2024-03-01T17:35:24.746Z,-9.85
2024-03-01T17:38:28.420Z,-9.78
2024-03-01T17:41:31.665Z,-9.93
2024-03-01T17:44:35.347Z,-9.86
2024-03-01T17:47:39.664Z,-9.73
2024-03-01T17:50:43.253Z,-9.77
2024-03-01T17:53:47.297Z,-9.85
2024-03-01T17:56:50.928Z,-9.72
2024-03-01T17:59:57.128Z,-9.62
2024-03-01T18:03:00.883Z,-9.59
2024-03-01T18:06:07.805Z,-9.67
2024-03-01T18:09:10.806Z,-9.73
2024-03-01T18:12:14.855Z,-9.74
2024-03-01T18:15:18.948Z,-9.69
2024-03-01T18:18:23.356Z,-9.70
2024-03-01T18:21:26.590Z,-9.71
2024-03-01T18:24:30.518Z,-9.67
2024-03-01T18:27:34.191Z,-9.64
2024-03-01T18:30:38.389Z,-9.54
2024-03-01T18:33:42.113Z,-9.67
2024-03-01T18:36:45.001Z,-9.67
2024-03-01T18:39:48.520Z,-9.61
2024-03-01T18:42:53.224Z,-9.58
2024-03-01T18:45:56.511Z,-9.57
2024-03-01T18:49:02.539Z,-9.81
2024-03-01T18:52:06.354Z,-9.77
2024-03-01T18:55:10.118Z,-9.79
2024-03-01T18:58:13.228Z,-9.86
2024-03-01T19:01:17.266Z,-9.87
2024-03-01T19:04:20.267Z,-10.03
2024-03-01T19:07:24.544Z,-10.04
2024-03-01T19:10:28.309Z,-10.02
2024-03-01T19:13:33.236Z,-10.00
2024-03-01T19:16:36.870Z,-9.96
2024-03-01T19:19:41.458Z,-9.96
2024-03-01T19:22:45.293Z,-9.97
2024-03-01T19:25:49.565Z,-9.99
2024-03-01T19:28:53.113Z,-9.98
2024-03-01T19:31:57.306Z,-10.00
2024-03-01T19:35:00.973Z,-9.95
2024-03-01T19:38:04.683Z,-9.89
2024-03-01T19:41:08.109Z,-9.95
2024-03-01T19:44:12.219Z,-9.91
2024-03-01T19:47:15.743Z,-9.86
2024-03-01T19:50:19.376Z,-9.88
2024-03-01T19:53:23.105Z,-9.92
2024-03-01T19:56:26.717Z,-9.95
2024-03-01T19:59:30.667Z,-10.12
2024-03-01T20:02:34.649Z,-10.15
2024-03-01T20:05:39.334Z,-10.24
2024-03-01T20:08:43.217Z,-10.42
2024-03-01T20:11:47.559Z,-10.40
2024-03-01T20:14:52.914Z,-10.28
2024-03-01T20:17:56.509Z,-10.22
2024-03-01T20:21:00.931Z,-10.29
2024-03-01T20:24:04.970Z,-10.42
2024-03-01T20:27:09.092Z,-10.50
2024-03-01T20:30:13.004Z,-10.55
2024-03-01T20:33:16.796Z,-10.53
2024-03-01T20:36:19.804Z,-10.46
2024-03-01T20:39:23.030Z,-10.36
2024-03-01T20:42:26.359Z,-10.31
2024-03-01T20:45:31.147Z,-10.44
2024-03-01T20:48:35.187Z,-10.54
2024-03-01T20:51:39.291Z,-10.49
2024-03-01T20:54:43.044Z,-10.53
2024-03-01T20:57:46.926Z,-10.64
2024-03-01T21:00:49.857Z,-10.79
2024-03-01T21:03:54.046Z,-10.89
2024-03-01T21:06:56.970Z,-11.01
2024-03-01T21:10:00.801Z,-11.09
2024-03-01T21:13:04.417Z,-11.16
2024-03-01T21:16:10.102Z,-11.20
2024-03-01T21:19:13.758Z,-11.24
2024-03-01T21:25:26.072Z,-11.14
2024-03-01T21:28:30.752Z,-11.09
2024-03-01T21:31:34.771Z,-11.04
2024-03-01T21:34:38.326Z,-10.83
2024-03-01T21:37:41.243Z,-10.80
2024-03-01T21:40:44.938Z,-10.84
2024-03-01T21:43:51.016Z,-10.91
2024-03-01T21:46:54.225Z,-10.95
2024-03-01T21:49:57.977Z,-10.99
2024-03-01T21:53:01.779Z,-11.03
2024-03-01T21:56:07.694Z,-11.08
2024-03-01T21:59:13.930Z,-11.20
2024-03-01T22:02:16.954Z,-11.36
2024-03-01T22:05:24.700Z,-11.51
2024-03-01T22:08:27.591Z,-11.48
2024-03-01T22:11:33.777Z,-11.44
2024-03-01T22:14:36.734Z,-11.47
2024-03-01T22:17:39.820Z,-11.56
2024-03-01T22:20:43.632Z,-11.63
2024-03-01T22:23:47.191Z,-11.69
2024-03-01T22:26:50.786Z,-11.72
2024-03-01T22:29:53.720Z,-11.81
2024-03-01T22:32:57.251Z,-11.90
2024-03-01T22:36:02.556Z,-12.08
2024-03-01T22:39:06.132Z,-12.17
2024-03-01T22:42:09.683Z,-12.12
2024-03-01T22:45:13.503Z,-12.16
2024-03-01T22:48:17.586Z,-12.35
2024-03-01T22:51:21.612Z,-12.33
2024-03-01T22:54:27.143Z,-12.40
2024-03-01T22:57:42.762Z,-12.51
2024-03-01T23:00:48.153Z,-12.60
2024-03-01T23:03:54.223Z,-12.72
2024-03-01T23:07:08.103Z,-12.65
2024-03-01T23:10:17.360Z,-12.52
2024-03-01T23:13:22.154Z,-12.56
2024-03-01T23:16:26.216Z,-12.62
2024-03-01T23:19:29.810Z,-12.59
2024-03-01T23:22:33.710Z,-12.60
2024-03-01T23:25:37.381Z,-12.60
2024-03-01T23:28:41.019Z,-12.62
2024-03-01T23:31:44.727Z,-12.55
2024-03-01T23:34:48.116Z,-12.33
2024-03-01T23:37:51.308Z,-12.19
2024-03-01T23:40:58.485Z,-11.98
2024-03-01T23:44:01.566Z,-11.72
2024-03-01T23:47:04.777Z,-11.64
2024-03-01T23:50:11.150Z,-11.69
2024-03-01T23:53:18.446Z,-11.70
2024-03-01T23:56:21.468Z,-11.66
2024-03-01T23:59:25.105Z,-11.57
